Tuesday, August 21, 2018, 12:01 AM GMT
Back to Local

CWGR, Iles-De-La-Madelein

Location: , , Canada Lat: 47.417
Local Time: 12:01 AM GMT ( 0:01 GMT) Lon: -61.8
Time Zone: GMT Elev: 32 ft

Show me the last for .
Show Coded

Time T Td Feel RH Dir Speed Gust Alt SLP Vis Weather Sky Remarks
2018-08-20 23:00 65 55 - 69 80° 6 - - 30.21 0 None
2018-08-20 22:00 67 56 - 66 80° 6 - - 30.20 0 None
2018-08-20 21:00 67 55 - 65 80° 5 - - 30.20 0 None
2018-08-20 20:00 69 53 - 57 340° 5 - - 30.20 0 None
2018-08-20 19:00 70 54 - 56 310° 6 - - 30.21 0 None
2018-08-20 18:00 71 49 76 46 190° 6 - - 30.22 0 None
2018-08-20 17:00 71 54 76 53 190° 5 - - 30.23 0 None
2018-08-20 16:00 67 54 - 62 150° 7 - - 30.24 0 None
2018-08-20 15:00 67 55 - 64 140° 7 - - 30.25 0 None
2018-08-20 14:00 67 59 - 75 130° 6 - - 30.25 0 None
2018-08-20 13:00 67 59 - 74 90° 3 - - 30.26 0 None
2018-08-20 12:00 65 57 - 76 90° 1 - - 30.26 0 None
2018-08-20 11:00 61 58 - 90 - Calm - - 30.24 0 None
2018-08-20 10:00 56 53 - 91 - Calm - - 30.23 0 None
2018-08-20 09:00 55 53 - 93 - Calm - - 30.21 0 None
2018-08-20 08:00 54 52 - 91 - Calm - - 30.20 0 None
2018-08-20 07:00 55 52 - 89 - Calm - - 30.19 0 None
2018-08-20 06:00 55 52 - 89 40° 1 - - 30.19 0 None
2018-08-20 05:00 54 50 - 84 100° 2 - - 30.19 0 None
2018-08-20 04:00 58 54 - 87 100° 5 - - 30.19 0 None
2018-08-20 03:00 58 55 - 90 70° 5 - - 30.18 0 None
2018-08-20 02:00 58 54 - 86 70° 5 - - 30.18 0 None
2018-08-20 01:00 57 55 - 90 30° 6 - - 30.18 0 None

Support USWX by starting your Amazon purchase here.